Time;durP1;ratioP1;P1;durP2;ratioP2;P2;SDS_P1;SDS_P2;PMS_P1;PMS_P2;Temp;Humidity;BMP_temperature;BMP_pressure;BME280_temperature;BME280_humidity;BME280_pressure;Samples;Min_cycle;Max_cycle;Signal;HPM_P1;HPM_P2
2023/04/26 00:00:18;;;;;;;7.45;2.47;;;5.30;99.90;;;;;;4928359;29;20053;-66
2023/04/26 00:02:44;;;;;;;10.82;2.13;;;5.30;99.90;;;;;;4932328;29;20074;-66
2023/04/26 00:05:09;;;;;;;9.27;1.90;;;5.30;99.90;;;;;;4926566;29;20069;-67
2023/04/26 00:07:36;;;;;;;6.63;1.85;;;5.20;99.90;;;;;;4925438;29;20039;-66
2023/04/26 00:10:03;;;;;;;8.90;1.80;;;5.20;99.90;;;;;;4931880;29;20050;-65
2023/04/26 00:12:29;;;;;;;6.40;2.03;;;5.20;99.90;;;;;;4930761;29;20337;-66
2023/04/26 00:14:55;;;;;;;8.15;1.80;;;5.20;99.90;;;;;;4913878;29;20152;-65
2023/04/26 00:17:22;;;;;;;10.43;2.42;;;5.20;99.90;;;;;;4928953;29;20074;-65
2023/04/26 00:19:47;;;;;;;5.85;1.88;;;5.20;99.90;;;;;;4930543;29;20180;-65
2023/04/26 00:22:14;;;;;;;6.22;1.70;;;5.10;99.90;;;;;;4930665;29;20048;-65
2023/04/26 00:24:40;;;;;;;5.72;1.65;;;5.10;99.90;;;;;;4931584;29;20142;-66
2023/04/26 00:27:09;;;;;;;7.93;2.03;;;5.20;99.90;;;;;;4930030;29;20448;-67
2023/04/26 00:29:35;;;;;;;6.35;1.60;;;5.20;99.90;;;;;;4932456;29;20063;-67
2023/04/26 00:32:01;;;;;;;5.28;1.65;;;5.30;99.90;;;;;;4931966;29;20044;-67
2023/04/26 00:34:34;;;;;;;6.32;1.90;;;5.30;99.90;;;;;;4929947;29;20062;-67
2023/04/26 00:37:00;;;;;;;8.60;2.28;;;5.30;99.90;;;;;;4929452;29;20170;-67
2023/04/26 00:39:26;;;;;;;6.60;2.25;;;5.30;99.90;;;;;;4929298;29;20118;-67
2023/04/26 00:41:52;;;;;;;6.20;1.83;;;5.30;99.90;;;;;;4931141;29;20447;-66
2023/04/26 00:44:17;;;;;;;6.60;1.75;;;5.40;99.90;;;;;;4931696;29;20048;-67
2023/04/26 00:46:43;;;;;;;6.10;2.05;;;5.40;99.90;;;;;;4929187;29;20074;-67
2023/04/26 00:49:14;;;;;;;6.07;1.83;;;5.30;99.90;;;;;;4929731;29;20111;-67
2023/04/26 00:51:41;;;;;;;7.05;1.88;;;5.30;99.90;;;;;;4922898;29;20047;-67
2023/04/26 00:54:07;;;;;;;5.47;1.52;;;5.30;99.90;;;;;;4929223;29;20040;-67
2023/04/26 00:56:35;;;;;;;4.60;1.77;;;5.30;99.90;;;;;;4930602;29;20044;-67
2023/04/26 00:59:04;;;;;;;6.18;2.20;;;5.30;99.90;;;;;;4928965;29;20067;-67
2023/04/26 01:01:29;;;;;;;5.95;1.67;;;5.30;99.90;;;;;;4923589;29;20044;-67
2023/04/26 01:03:55;;;;;;;7.53;2.30;;;5.30;99.90;;;;;;4930584;29;20048;-67
2023/04/26 01:06:22;;;;;;;6.65;1.50;;;5.30;99.90;;;;;;4933465;29;20044;-66
2023/04/26 01:08:50;;;;;;;7.07;1.67;;;5.20;99.90;;;;;;4930493;29;20436;-66
2023/04/26 01:11:18;;;;;;;9.90;1.90;;;5.20;99.90;;;;;;4933329;29;20062;-67
2023/04/26 01:13:45;;;;;;;6.13;1.40;;;5.20;99.90;;;;;;4935153;29;20047;-67
2023/04/26 01:16:12;;;;;;;4.75;1.60;;;5.20;99.90;;;;;;4933967;29;20572;-67
2023/04/26 01:18:38;;;;;;;4.85;1.58;;;5.20;99.90;;;;;;4932909;29;20344;-67
2023/04/26 01:21:04;;;;;;;8.05;1.83;;;5.20;99.90;;;;;;4935098;29;20063;-66
2023/04/26 01:23:30;;;;;;;7.47;1.80;;;5.20;99.90;;;;;;4933569;29;20542;-66
2023/04/26 01:25:56;;;;;;;8.00;2.03;;;5.20;99.90;;;;;;4934415;29;20035;-66
2023/04/26 01:28:22;;;;;;;6.95;1.63;;;5.20;99.90;;;;;;4932251;29;20043;-66
2023/04/26 01:30:47;;;;;;;4.65;1.67;;;5.20;99.90;;;;;;4934814;29;20459;-66
2023/04/26 01:33:14;;;;;;;6.63;1.90;;;5.20;99.90;;;;;;4935300;29;20040;-66
2023/04/26 01:35:40;;;;;;;6.72;1.40;;;5.20;99.90;;;;;;4935429;29;20048;-67
2023/04/26 01:38:07;;;;;;;3.63;1.45;;;5.20;99.90;;;;;;4931877;29;20095;-66
2023/04/26 01:40:32;;;;;;;7.82;2.00;;;5.20;99.90;;;;;;4934148;29;20040;-66
2023/04/26 01:42:58;;;;;;;10.85;2.08;;;5.10;99.90;;;;;;4932676;29;20401;-66
2023/04/26 01:45:24;;;;;;;7.85;2.10;;;5.20;99.90;;;;;;4930135;29;20043;-67
2023/04/26 01:47:49;;;;;;;6.43;1.80;;;5.20;99.90;;;;;;4930061;29;20091;-67
2023/04/26 01:50:15;;;;;;;7.57;2.00;;;5.10;99.90;;;;;;4928978;29;20115;-67
2023/04/26 01:52:41;;;;;;;5.95;1.70;;;5.10;99.90;;;;;;4930049;29;20058;-66
2023/04/26 01:55:07;;;;;;;4.05;1.55;;;5.00;99.90;;;;;;4930669;29;20043;-66
2023/04/26 01:57:32;;;;;;;5.88;1.80;;;5.00;99.90;;;;;;4929209;29;20047;-66
2023/04/26 01:59:58;;;;;;;6.70;1.77;;;5.00;99.90;;;;;;4929747;29;20428;-66
2023/04/26 02:02:24;;;;;;;5.90;1.45;;;5.00;99.90;;;;;;4930671;29;20075;-66
2023/04/26 02:04:49;;;;;;;7.20;2.00;;;5.00;99.90;;;;;;4931448;29;20051;-66
2023/04/26 02:07:15;;;;;;;4.75;1.60;;;5.00;99.90;;;;;;4929460;29;20516;-66
2023/04/26 02:09:41;;;;;;;6.75;1.70;;;5.00;99.90;;;;;;4928868;29;20115;-66
2023/04/26 02:12:07;;;;;;;4.38;1.42;;;4.90;99.90;;;;;;4930454;29;20101;-67
2023/04/26 02:14:32;;;;;;;7.07;1.45;;;4.90;99.90;;;;;;4929736;29;20087;-66
2023/04/26 02:16:58;;;;;;;6.13;1.92;;;4.90;99.90;;;;;;4926011;29;20074;-66
2023/04/26 02:19:24;;;;;;;6.43;1.80;;;4.90;99.90;;;;;;4929552;29;20107;-66
2023/04/26 02:21:55;;;;;;;4.15;1.67;;;4.80;99.90;;;;;;4930060;29;20160;-66
2023/04/26 02:24:22;;;;;;;6.28;1.65;;;4.80;99.90;;;;;;4929617;29;20052;-66
2023/04/26 02:26:47;;;;;;;4.63;1.80;;;4.80;99.90;;;;;;4930858;29;20788;-65
2023/04/26 02:29:13;;;;;;;5.10;1.80;;;4.80;99.90;;;;;;4933169;29;20106;-65
2023/04/26 02:31:39;;;;;;;7.80;1.90;;;4.70;99.90;;;;;;4930645;29;20059;-66
2023/04/26 02:34:05;;;;;;;7.45;1.65;;;4.70;99.90;;;;;;4933075;29;20051;-66
2023/04/26 02:36:31;;;;;;;4.53;1.60;;;4.60;99.90;;;;;;4933750;29;20454;-67
2023/04/26 02:38:58;;;;;;;5.85;1.90;;;4.60;99.90;;;;;;4932506;29;20055;-66
2023/04/26 02:41:23;;;;;;;5.45;1.98;;;4.50;99.90;;;;;;4932379;29;20051;-66
2023/04/26 02:43:49;;;;;;;3.75;1.60;;;4.50;99.90;;;;;;4933594;29;20036;-66
2023/04/26 02:46:15;;;;;;;5.50;1.60;;;4.50;99.90;;;;;;4927487;29;20477;-65
2023/04/26 02:48:40;;;;;;;5.65;1.60;;;4.50;99.90;;;;;;4929781;29;20455;-66
2023/04/26 02:51:06;;;;;;;5.40;2.00;;;4.50;99.90;;;;;;4929573;29;20376;-66
2023/04/26 02:53:32;;;;;;;5.97;1.83;;;4.50;99.90;;;;;;4929616;29;20166;-65
2023/04/26 02:55:59;;;;;;;5.70;1.83;;;4.50;99.90;;;;;;4928986;29;21755;-66
2023/04/26 02:58:25;;;;;;;6.47;2.28;;;4.50;99.90;;;;;;4929682;29;20051;-66
2023/04/26 03:00:53;;;;;;;7.35;2.38;;;4.50;99.90;;;;;;4928382;29;20375;-65
2023/04/26 03:03:19;;;;;;;5.93;2.08;;;4.50;99.90;;;;;;4927981;29;20048;-66
2023/04/26 03:05:45;;;;;;;7.03;2.20;;;4.50;99.90;;;;;;4928139;29;20051;-66
2023/04/26 03:08:10;;;;;;;10.18;2.92;;;4.50;99.90;;;;;;4930053;29;20044;-66
2023/04/26 03:10:36;;;;;;;10.15;2.28;;;4.50;99.90;;;;;;4920938;29;20048;-67
2023/04/26 03:13:03;;;;;;;6.40;2.03;;;4.50;99.90;;;;;;4926523;29;20444;-67
2023/04/26 03:15:29;;;;;;;4.88;2.03;;;4.50;99.90;;;;;;4930101;29;20131;-67
2023/04/26 03:17:54;;;;;;;10.00;2.33;;;4.70;99.90;;;;;;4929658;29;20100;-67
2023/04/26 03:20:20;;;;;;;7.57;2.60;;;4.70;99.90;;;;;;4932968;29;20032;-66
2023/04/26 03:22:45;;;;;;;9.40;2.00;;;4.70;99.90;;;;;;4933650;29;20099;-67
2023/04/26 03:25:12;;;;;;;5.07;1.98;;;4.80;99.90;;;;;;4930228;29;20079;-66
2023/04/26 03:27:37;;;;;;;7.05;2.17;;;4.80;99.90;;;;;;4932435;29;20454;-66
2023/04/26 03:30:04;;;;;;;7.55;2.35;;;4.70;99.90;;;;;;4932127;29;20047;-67
2023/04/26 03:32:30;;;;;;;6.72;2.22;;;4.70;99.90;;;;;;4932341;29;20056;-65
2023/04/26 03:34:55;;;;;;;9.07;2.03;;;4.80;99.90;;;;;;4932364;29;20051;-66
2023/04/26 03:37:21;;;;;;;8.80;2.17;;;4.80;99.90;;;;;;4929730;29;20070;-66
2023/04/26 03:39:46;;;;;;;4.55;1.63;;;4.80;99.90;;;;;;4927814;29;20071;-66
2023/04/26 03:42:12;;;;;;;6.88;1.80;;;4.80;99.90;;;;;;4928629;29;20071;-66
2023/04/26 03:44:38;;;;;;;5.40;1.80;;;4.70;99.90;;;;;;4929035;29;20074;-66
2023/04/26 03:47:04;;;;;;;7.47;2.17;;;4.80;99.90;;;;;;4927254;29;20059;-66
2023/04/26 03:49:30;;;;;;;7.22;2.05;;;4.80;99.90;;;;;;4926811;29;20395;-67
2023/04/26 03:51:56;;;;;;;5.10;1.70;;;4.80;99.90;;;;;;4926945;29;20039;-66
2023/04/26 03:54:22;;;;;;;5.13;1.90;;;4.90;99.90;;;;;;4927127;29;20492;-66
2023/04/26 03:56:47;;;;;;;8.30;2.05;;;4.90;99.90;;;;;;4925013;29;20073;-66
2023/04/26 03:59:13;;;;;;;5.00;1.73;;;4.90;99.90;;;;;;4929233;29;20051;-67
2023/04/26 04:01:39;;;;;;;4.80;1.60;;;5.00;99.90;;;;;;4927600;29;20479;-67
2023/04/26 04:04:05;;;;;;;6.53;2.00;;;5.00;99.90;;;;;;4929402;29;20104;-67
2023/04/26 04:06:31;;;;;;;4.82;1.60;;;5.00;99.90;;;;;;4927694;29;20089;-67
2023/04/26 04:08:57;;;;;;;5.35;1.80;;;5.10;99.90;;;;;;4927608;29;20146;-66
2023/04/26 04:11:23;;;;;;;4.15;1.67;;;5.10;99.90;;;;;;4927200;29;21542;-67
2023/04/26 04:13:48;;;;;;;5.47;1.80;;;5.10;99.90;;;;;;4927901;29;20168;-66
2023/04/26 04:16:14;;;;;;;7.32;1.80;;;5.10;99.90;;;;;;4926924;29;20335;-66
2023/04/26 04:18:39;;;;;;;5.28;1.80;;;5.20;99.90;;;;;;4925423;29;20092;-66
2023/04/26 04:21:05;;;;;;;3.78;1.50;;;5.10;99.90;;;;;;4930296;29;20550;-67
2023/04/26 04:23:31;;;;;;;5.38;1.60;;;5.10;99.90;;;;;;4927479;29;20047;-66
2023/04/26 04:25:56;;;;;;;5.93;2.10;;;5.10;99.90;;;;;;4927879;29;20384;-65
2023/04/26 04:28:22;;;;;;;5.82;1.60;;;5.10;99.90;;;;;;4927806;29;20098;-66
2023/04/26 04:30:48;;;;;;;7.63;2.08;;;5.10;99.90;;;;;;4925869;29;20478;-66
2023/04/26 04:33:15;;;;;;;7.72;1.90;;;5.10;99.90;;;;;;4926950;29;20397;-67
2023/04/26 04:35:41;;;;;;;6.63;1.90;;;5.10;99.90;;;;;;4928074;29;20087;-66
2023/04/26 04:38:07;;;;;;;6.20;1.60;;;5.10;99.90;;;;;;4927672;29;20088;-67
2023/04/26 04:40:32;;;;;;;5.50;1.90;;;5.10;99.90;;;;;;4931866;29;20118;-67
2023/04/26 04:42:59;;;;;;;4.55;1.60;;;5.00;99.90;;;;;;4925735;29;20448;-67
2023/04/26 04:45:26;;;;;;;6.32;2.00;;;5.00;99.90;;;;;;4913836;29;20130;-66
2023/04/26 04:47:52;;;;;;;10.30;2.28;;;5.00;99.90;;;;;;4932733;29;20039;-66
2023/04/26 04:50:18;;;;;;;5.18;2.00;;;5.10;99.90;;;;;;4931508;29;20055;-67
2023/04/26 04:52:44;;;;;;;7.72;2.33;;;5.10;99.90;;;;;;4930698;29;20043;-67
2023/04/26 04:55:10;;;;;;;6.22;2.35;;;5.40;99.90;;;;;;4930420;29;20035;-67
2023/04/26 04:57:35;;;;;;;7.20;2.40;;;5.90;99.90;;;;;;4929347;29;20048;-67
2023/04/26 05:00:08;;;;;;;7.30;2.58;;;6.10;99.90;;;;;;4930405;29;20052;-67
2023/04/26 05:02:35;;;;;;;4.80;2.20;;;6.10;99.90;;;;;;4929542;29;20067;-69
2023/04/26 05:05:03;;;;;;;7.68;2.60;;;6.20;99.90;;;;;;4931380;29;20040;-67
2023/04/26 05:07:29;;;;;;;5.20;2.05;;;6.20;99.90;;;;;;4935365;29;20176;-66
2023/04/26 05:09:55;;;;;;;5.97;2.45;;;6.20;99.90;;;;;;4935407;29;20066;-66
2023/04/26 05:12:20;;;;;;;4.72;1.92;;;6.30;99.90;;;;;;4934632;29;20043;-67
2023/04/26 05:14:46;;;;;;;9.52;2.25;;;6.20;99.90;;;;;;4929407;29;20237;-67
2023/04/26 05:17:12;;;;;;;6.85;2.30;;;6.20;99.90;;;;;;4934939;29;20149;-67
2023/04/26 05:19:37;;;;;;;5.65;2.33;;;6.20;99.90;;;;;;4936449;29;20044;-67
2023/04/26 05:22:03;;;;;;;6.85;2.47;;;6.20;99.90;;;;;;4935520;29;20358;-67
2023/04/26 05:24:30;;;;;;;8.65;2.15;;;6.20;99.90;;;;;;4923214;29;20043;-66
2023/04/26 05:26:57;;;;;;;8.65;2.05;;;6.30;99.90;;;;;;4935163;29;20050;-67
2023/04/26 05:29:23;;;;;;;4.85;1.90;;;6.20;99.90;;;;;;4934868;29;20107;-66
2023/04/26 05:31:49;;;;;;;7.35;2.30;;;6.20;99.90;;;;;;4932649;29;20039;-66
2023/04/26 05:34:14;;;;;;;3.40;1.55;;;6.20;99.90;;;;;;4935040;29;20062;-68
2023/04/26 05:36:40;;;;;;;7.45;1.95;;;6.20;99.90;;;;;;4932813;29;20194;-67
2023/04/26 05:39:07;;;;;;;5.05;1.63;;;6.30;99.90;;;;;;4933932;29;20066;-67
2023/04/26 05:41:32;;;;;;;5.40;2.03;;;6.30;99.90;;;;;;4933018;29;20104;-67
2023/04/26 05:44:01;;;;;;;6.22;2.20;;;6.40;99.90;;;;;;4934986;29;20542;-66
2023/04/26 05:46:26;;;;;;;6.38;2.00;;;6.40;99.90;;;;;;4930847;29;20135;-64
2023/04/26 05:48:52;;;;;;;7.50;2.33;;;6.40;99.90;;;;;;4933941;29;20151;-65
2023/04/26 05:51:18;;;;;;;5.78;2.05;;;6.30;99.90;;;;;;4928109;29;20071;-67
2023/04/26 05:53:43;;;;;;;6.47;2.20;;;6.30;99.90;;;;;;4933972;29;20471;-69
2023/04/26 05:56:09;;;;;;;7.35;2.30;;;6.30;99.90;;;;;;4933056;29;20044;-67
2023/04/26 05:58:34;;;;;;;6.10;2.00;;;6.30;99.90;;;;;;4934563;29;20341;-65
2023/04/26 06:01:00;;;;;;;5.22;2.00;;;6.30;99.90;;;;;;4927814;29;20040;-66
2023/04/26 06:03:25;;;;;;;6.10;1.83;;;6.40;99.90;;;;;;4933154;29;20123;-66
2023/04/26 06:05:51;;;;;;;6.60;2.00;;;6.40;99.90;;;;;;4929033;29;20459;-66
2023/04/26 06:08:17;;;;;;;7.00;2.15;;;6.50;99.90;;;;;;4933534;29;20043;-66
2023/04/26 06:10:42;;;;;;;6.35;1.70;;;6.60;99.90;;;;;;4934597;29;20121;-65
2023/04/26 06:13:08;;;;;;;7.63;1.92;;;6.70;99.90;;;;;;4930245;29;20051;-66
2023/04/26 06:15:33;;;;;;;7.57;2.33;;;6.70;99.90;;;;;;4934409;29;20048;-67
2023/04/26 06:17:59;;;;;;;5.95;1.90;;;6.80;99.90;;;;;;4928953;29;20054;-67
2023/04/26 06:20:25;;;;;;;12.20;2.10;;;6.80;99.90;;;;;;4935289;29;20418;-66
2023/04/26 06:22:50;;;;;;;4.97;1.90;;;6.90;99.90;;;;;;4934498;29;20071;-66
2023/04/26 06:25:16;;;;;;;7.43;2.00;;;6.90;99.90;;;;;;4932551;29;20060;-67
2023/04/26 06:27:41;;;;;;;5.95;2.05;;;7.00;99.90;;;;;;4935931;29;20047;-66
2023/04/26 06:30:08;;;;;;;6.38;1.90;;;7.00;99.90;;;;;;4932643;29;20039;-63
2023/04/26 06:32:33;;;;;;;5.18;2.03;;;7.00;99.90;;;;;;4935042;29;20058;-66
2023/04/26 06:34:59;;;;;;;4.70;1.90;;;7.10;99.90;;;;;;4934782;29;20468;-64
2023/04/26 06:37:25;;;;;;;4.97;2.30;;;7.20;99.90;;;;;;4934910;29;20103;-64
2023/04/26 06:39:50;;;;;;;4.43;2.05;;;7.20;99.90;;;;;;4935022;29;20055;-66
2023/04/26 06:42:16;;;;;;;7.72;2.25;;;7.30;99.90;;;;;;4932579;29;20419;-65
2023/04/26 06:44:42;;;;;;;5.80;1.92;;;7.40;99.90;;;;;;4933353;29;20044;-65
2023/04/26 06:47:08;;;;;;;6.47;2.08;;;7.40;99.90;;;;;;4930342;29;20114;-65
2023/04/26 06:49:34;;;;;;;3.60;1.60;;;7.40;99.90;;;;;;4930911;29;20130;-65
2023/04/26 06:52:00;;;;;;;7.45;2.33;;;7.50;99.90;;;;;;4929060;29;20135;-66
2023/04/26 06:54:30;;;;;;;5.47;1.65;;;7.60;99.90;;;;;;4930124;29;20123;-65
2023/04/26 06:56:55;;;;;;;6.72;1.73;;;7.70;99.90;;;;;;4930580;29;20043;-67
2023/04/26 06:59:21;;;;;;;3.88;1.50;;;7.80;99.90;;;;;;4927926;28;20108;-67
2023/04/26 07:01:47;;;;;;;6.97;2.03;;;7.90;99.90;;;;;;4926967;29;20048;-65
2023/04/26 07:04:13;;;;;;;3.97;1.20;;;7.90;99.90;;;;;;4929796;29;20107;-65
2023/04/26 07:06:40;;;;;;;3.90;1.25;;;8.00;99.90;;;;;;4930243;29;20048;-65
2023/04/26 07:09:06;;;;;;;6.72;1.92;;;8.10;99.90;;;;;;4931823;29;20067;-66
2023/04/26 07:11:32;;;;;;;4.95;1.70;;;8.10;99.90;;;;;;4931262;29;20713;-66
2023/04/26 07:13:58;;;;;;;4.93;1.50;;;8.10;99.90;;;;;;4933838;29;20142;-66
2023/04/26 07:16:23;;;;;;;4.72;1.80;;;8.20;99.90;;;;;;4933017;29;20131;-66
2023/04/26 07:18:50;;;;;;;6.57;1.75;;;8.20;99.90;;;;;;4932561;29;20051;-65
2023/04/26 07:21:15;;;;;;;8.05;1.67;;;8.20;99.90;;;;;;4932072;29;20061;-65
2023/04/26 07:23:41;;;;;;;4.18;1.52;;;8.30;99.90;;;;;;4933820;29;20399;-65
2023/04/26 07:26:09;;;;;;;6.25;2.10;;;8.40;99.90;;;;;;4933682;29;20047;-65
2023/04/26 07:28:34;;;;;;;7.43;2.30;;;8.50;99.90;;;;;;4934286;29;20230;-65
2023/04/26 07:31:00;;;;;;;7.95;2.60;;;8.50;99.90;;;;;;4932209;29;20089;-64
2023/04/26 07:33:26;;;;;;;6.85;2.20;;;8.60;99.90;;;;;;4933367;29;20058;-65
2023/04/26 07:35:56;;;;;;;8.35;1.83;;;8.90;99.90;;;;;;4933970;29;20040;-65
2023/04/26 07:38:22;;;;;;;8.30;1.90;;;9.00;99.90;;;;;;4933524;29;20048;-65
2023/04/26 07:40:48;;;;;;;5.28;1.63;;;9.20;99.90;;;;;;4933400;29;20058;-65
2023/04/26 07:43:15;;;;;;;4.60;1.60;;;9.30;99.90;;;;;;4934156;29;20163;-65
2023/04/26 07:45:41;;;;;;;4.50;1.67;;;9.40;99.90;;;;;;4934048;29;20417;-65
2023/04/26 07:48:07;;;;;;;6.82;1.60;;;9.40;99.90;;;;;;4927280;29;20114;-66
2023/04/26 07:50:35;;;;;;;6.05;1.95;;;9.40;99.90;;;;;;4933303;29;20444;-66
2023/04/26 07:53:01;;;;;;;4.63;1.67;;;9.30;99.90;;;;;;4932936;29;20380;-66
2023/04/26 07:55:26;;;;;;;5.05;1.40;;;9.30;99.90;;;;;;4933586;29;20106;-66
2023/04/26 07:57:52;;;;;;;6.72;1.55;;;9.30;99.90;;;;;;4923107;29;20182;-65
2023/04/26 08:00:18;;;;;;;6.20;1.50;;;9.30;99.90;;;;;;4905225;29;20051;-66
2023/04/26 08:02:47;;;;;;;4.45;1.40;;;9.40;99.90;;;;;;4930542;29;20111;-66
2023/04/26 08:05:13;;;;;;;5.20;1.33;;;9.50;99.90;;;;;;4927278;29;20051;-66
2023/04/26 08:07:39;;;;;;;6.93;1.50;;;9.60;99.90;;;;;;4932788;29;20147;-66
2023/04/26 08:10:05;;;;;;;5.03;1.60;;;9.60;99.90;;;;;;4932766;29;20063;-67
2023/04/26 08:12:32;;;;;;;7.10;1.65;;;9.80;99.90;;;;;;4932920;29;20365;-66
2023/04/26 08:15:00;;;;;;;6.82;1.60;;;9.90;99.90;;;;;;4932206;29;20123;-66
2023/04/26 08:17:26;;;;;;;5.40;1.60;;;9.90;99.90;;;;;;4926422;29;20060;-66
2023/04/26 08:19:52;;;;;;;5.68;1.52;;;9.90;99.90;;;;;;4921849;29;20115;-66
2023/04/26 08:22:18;;;;;;;7.70;1.73;;;9.90;99.90;;;;;;4932921;29;20095;-66
2023/04/26 08:24:49;;;;;;;7.88;2.15;;;10.00;99.90;;;;;;4930596;29;20056;-66
2023/04/26 08:27:15;;;;;;;12.10;3.72;;;10.10;99.90;;;;;;4930522;29;20447;-65
2023/04/26 08:29:40;;;;;;;11.77;3.60;;;10.10;99.90;;;;;;4932837;29;20122;-66
2023/04/26 08:32:06;;;;;;;10.18;3.63;;;10.20;99.90;;;;;;4931416;29;20044;-66
2023/04/26 08:34:31;;;;;;;10.52;3.90;;;10.30;99.90;;;;;;4930173;29;20043;-66
2023/04/26 08:36:57;;;;;;;8.52;2.85;;;10.50;99.90;;;;;;4932890;29;20046;-66
2023/04/26 08:39:23;;;;;;;8.23;2.50;;;10.60;99.90;;;;;;4930187;29;20040;-66
2023/04/26 08:42:04;;;;;;;8.70;2.05;;;10.70;99.90;;;;;;4931196;29;20068;-66
2023/04/26 08:44:34;;;;;;;7.38;2.30;;;10.70;99.90;;;;;;4931712;29;20059;-66
2023/04/26 08:47:16;;;;;;;6.30;1.90;;;10.70;99.90;;;;;;4933243;29;20086;-67
2023/04/26 08:49:47;;;;;;;9.70;2.40;;;10.70;99.90;;;;;;4930686;29;20597;-66
2023/04/26 08:52:15;;;;;;;6.03;2.10;;;10.70;99.90;;;;;;4932660;29;20078;-66
2023/04/26 08:54:42;;;;;;;7.82;1.95;;;10.50;99.90;;;;;;4932477;29;20048;-65
2023/04/26 08:57:08;;;;;;;7.18;2.20;;;10.40;99.90;;;;;;4932051;29;20150;-65
2023/04/26 08:59:37;;;;;;;6.25;2.00;;;10.40;99.90;;;;;;4932420;29;20040;-65
2023/04/26 09:02:08;;;;;;;6.85;2.13;;;10.30;99.90;;;;;;4930058;29;20371;-66
2023/04/26 09:04:34;;;;;;;6.57;2.30;;;10.30;99.90;;;;;;4930330;29;20170;-66
2023/04/26 09:07:02;;;;;;;6.70;2.20;;;10.30;99.90;;;;;;4932500;29;20055;-66
2023/04/26 09:09:34;;;;;;;5.10;1.80;;;10.50;99.90;;;;;;4921942;29;20373;-67
2023/04/26 09:12:02;;;;;;;4.85;1.70;;;10.70;99.90;;;;;;4914000;29;20052;-66
2023/04/26 09:14:28;;;;;;;3.03;1.40;;;10.90;99.90;;;;;;4938616;29;20367;-67
2023/04/26 09:16:54;;;;;;;6.25;1.60;;;11.10;99.90;;;;;;4930570;29;20467;-67
2023/04/26 09:19:41;;;;;;;6.18;1.60;;;11.30;99.90;;;;;;4931694;29;20123;-67
2023/04/26 09:22:07;;;;;;;7.05;1.92;;;11.30;99.90;;;;;;4922828;29;20551;-65
2023/04/26 09:24:51;;;;;;;4.38;1.80;;;11.40;99.90;;;;;;4930792;29;20068;-65
2023/04/26 09:27:17;;;;;;;6.00;1.90;;;11.40;99.90;;;;;;4933611;29;20039;-66
2023/04/26 09:30:17;;;;;;;6.45;1.75;;;11.60;99.90;;;;;;4947940;28;20075;-69
2023/04/26 09:32:54;;;;;;;8.85;2.10;;;11.70;99.90;;;;;;4901369;29;20111;-66
2023/04/26 09:35:30;;;;;;;6.22;1.90;;;11.70;99.90;;;;;;4933807;29;20115;-67
2023/04/26 09:38:05;;;;;;;6.47;2.20;;;11.40;99.90;;;;;;4931943;29;20103;-69
2023/04/26 09:40:33;;;;;;;7.05;2.53;;;11.30;99.90;;;;;;4933640;29;20055;-68
2023/04/26 09:43:02;;;;;;;9.77;2.30;;;11.00;99.90;;;;;;4934978;29;20036;-66
2023/04/26 09:45:30;;;;;;;5.38;1.90;;;10.90;99.90;;;;;;4934117;29;20043;-67
2023/04/26 09:48:21;;;;;;;4.22;1.63;;;10.70;99.90;;;;;;4934978;29;20051;-67
2023/04/26 09:50:51;;;;;;;4.78;1.70;;;10.60;99.90;;;;;;4926267;29;20371;-67
2023/04/26 09:53:33;;;;;;;6.45;1.92;;;10.30;99.90;;;;;;4933001;29;20044;-67
2023/04/26 09:56:25;;;;;;;5.55;2.20;;;10.20;99.90;;;;;;4934911;29;20058;-66
2023/04/26 09:58:59;;;;;;;5.97;1.70;;;10.10;99.90;;;;;;4932462;29;20048;-67
2023/04/26 10:01:28;;;;;;;6.38;1.63;;;10.20;99.90;;;;;;4932949;29;20305;-68
2023/04/26 10:03:55;;;;;;;5.47;1.40;;;10.30;99.90;;;;;;4934975;29;20067;-67
2023/04/26 10:06:21;;;;;;;6.47;1.90;;;10.50;99.90;;;;;;4932822;29;20094;-66
2023/04/26 10:08:47;;;;;;;7.93;1.90;;;10.60;99.90;;;;;;4933607;29;20082;-66
2023/04/26 10:11:13;;;;;;;6.93;1.90;;;10.60;99.90;;;;;;4933365;29;20428;-66
2023/04/26 10:13:40;;;;;;;5.38;1.60;;;10.60;99.90;;;;;;4933378;29;20047;-66
2023/04/26 10:16:08;;;;;;;5.45;1.92;;;10.60;99.90;;;;;;4916191;29;20048;-66
2023/04/26 10:18:34;;;;;;;6.65;2.28;;;10.60;99.90;;;;;;4931875;29;20130;-66
2023/04/26 10:21:14;;;;;;;8.45;1.95;;;10.50;99.90;;;;;;4935463;29;20460;-64
2023/04/26 10:23:40;;;;;;;6.45;1.80;;;10.40;99.90;;;;;;4933675;29;20043;-65
2023/04/26 10:26:06;;;;;;;6.60;1.60;;;10.40;99.90;;;;;;4924404;29;20870;-64
2023/04/26 10:28:44;;;;;;;3.88;1.50;;;10.50;99.90;;;;;;4931450;29;20058;-63
2023/04/26 10:31:10;;;;;;;7.07;1.70;;;10.50;99.90;;;;;;4928849;29;20057;-66
2023/04/26 10:33:36;;;;;;;6.13;2.03;;;10.60;99.90;;;;;;4923125;29;20405;-68
2023/04/26 10:36:11;;;;;;;5.70;1.65;;;10.70;99.90;;;;;;4925326;29;20478;-67
2023/04/26 10:38:39;;;;;;;7.53;1.83;;;10.80;99.90;;;;;;4925934;29;20113;-66
2023/04/26 10:41:28;;;;;;;5.80;1.70;;;10.80;99.90;;;;;;4924500;29;20668;-66
2023/04/26 10:43:54;;;;;;;4.30;1.70;;;10.80;99.90;;;;;;4927242;29;20048;-67
2023/04/26 10:46:33;;;;;;;4.35;1.75;;;10.70;99.90;;;;;;4927224;29;20040;-67
2023/04/26 10:49:14;;;;;;;5.63;1.67;;;10.60;99.90;;;;;;4922163;29;20048;-66
2023/04/26 10:51:40;;;;;;;6.20;1.50;;;10.30;99.90;;;;;;4923383;29;20084;-66
2023/04/26 10:54:06;;;;;;;4.85;1.38;;;10.10;99.90;;;;;;4925956;29;20138;-67
2023/04/26 10:56:32;;;;;;;6.57;1.80;;;9.90;99.90;;;;;;4925772;29;20155;-68
2023/04/26 10:59:08;;;;;;;6.32;1.80;;;9.90;99.90;;;;;;4927863;29;20131;-68
2023/04/26 11:01:34;;;;;;;4.45;1.50;;;9.90;99.90;;;;;;4924948;29;20484;-67
2023/04/26 11:04:00;;;;;;;5.60;1.45;;;9.90;99.90;;;;;;4924519;29;20035;-67
2023/04/26 11:06:45;;;;;;;6.72;1.70;;;9.80;99.90;;;;;;4925610;29;20051;-67
2023/04/26 11:09:40;;;;;;;5.18;1.25;;;9.90;99.90;;;;;;4925122;29;20464;-66
2023/04/26 11:12:07;;;;;;;5.03;1.67;;;10.00;99.90;;;;;;4920323;29;20058;-66
2023/04/26 11:14:34;;;;;;;7.07;1.60;;;10.10;99.90;;;;;;4924499;29;20063;-67
2023/04/26 11:17:04;;;;;;;5.47;1.63;;;10.30;99.90;;;;;;4919261;29;20528;-67
2023/04/26 11:19:31;;;;;;;5.43;1.70;;;10.50;99.90;;;;;;4925754;29;20337;-67
2023/04/26 11:21:58;;;;;;;6.22;1.70;;;10.50;99.90;;;;;;4925750;29;20173;-66
2023/04/26 11:24:25;;;;;;;7.28;1.77;;;10.60;99.90;;;;;;4923335;29;20060;-66
2023/04/26 11:26:52;;;;;;;6.18;1.58;;;10.70;99.90;;;;;;4924284;29;20132;-65
2023/04/26 11:29:18;;;;;;;5.18;1.75;;;10.80;99.90;;;;;;4923505;29;20056;-66
2023/04/26 11:31:51;;;;;;;6.63;1.45;;;11.20;99.90;;;;;;4926518;29;20069;-67
2023/04/26 11:34:18;;;;;;;5.07;1.52;;;11.40;99.90;;;;;;4923114;29;20048;-66
2023/04/26 11:36:45;;;;;;;4.00;1.33;;;11.50;99.80;;;;;;4924362;29;20063;-66
2023/04/26 11:39:12;;;;;;;4.88;1.42;;;11.60;99.30;;;;;;4926622;29;20329;-66
2023/04/26 11:41:37;;;;;;;5.07;1.40;;;11.20;98.10;;;;;;4922452;29;20091;-65
2023/04/26 11:44:03;;;;;;;3.67;1.20;;;11.10;98.70;;;;;;4924512;29;20071;-66
2023/04/26 11:46:29;;;;;;;3.95;1.20;;;11.10;99.90;;;;;;4924612;29;20107;-66
2023/04/26 11:48:55;;;;;;;4.82;1.50;;;11.00;99.30;;;;;;4926857;29;20147;-66
2023/04/26 11:51:20;;;;;;;4.40;1.33;;;11.00;97.00;;;;;;4925558;29;20055;-67
2023/04/26 11:53:46;;;;;;;6.25;1.52;;;11.10;97.00;;;;;;4920083;29;20048;-66
2023/04/26 11:56:17;;;;;;;5.70;1.55;;;11.30;97.90;;;;;;4926385;29;20490;-66
2023/04/26 11:58:44;;;;;;;6.78;1.52;;;11.40;97.00;;;;;;4924627;29;20055;-68
2023/04/26 12:01:10;;;;;;;4.32;1.40;;;11.60;97.40;;;;;;4920559;29;20048;-67
2023/04/26 12:03:36;;;;;;;7.00;1.70;;;11.50;95.70;;;;;;4919905;29;20095;-66
2023/04/26 12:06:05;;;;;;;7.97;1.60;;;11.40;96.20;;;;;;4927220;29;20498;-65
2023/04/26 12:08:32;;;;;;;7.45;1.75;;;11.30;97.00;;;;;;4925475;29;20044;-67
2023/04/26 12:11:01;;;;;;;5.13;1.60;;;11.30;97.80;;;;;;4923268;29;20076;-66
2023/04/26 12:13:31;;;;;;;5.00;1.67;;;11.20;99.10;;;;;;4929532;29;20167;-65
2023/04/26 12:15:57;;;;;;;4.00;1.65;;;11.10;99.50;;;;;;4929486;29;20040;-65
2023/04/26 12:18:30;;;;;;;6.93;1.75;;;11.00;99.90;;;;;;4932333;29;20054;-67
2023/04/26 12:21:00;;;;;;;6.88;1.95;;;11.00;99.90;;;;;;4933290;29;20079;-66
2023/04/26 12:23:26;;;;;;;6.07;1.83;;;10.90;99.90;;;;;;4923512;29;20059;-65
2023/04/26 12:25:56;;;;;;;4.65;1.70;;;10.80;99.90;;;;;;4933014;29;20067;-65
2023/04/26 12:28:23;;;;;;;7.57;2.03;;;10.70;99.90;;;;;;4933522;29;20111;-66
2023/04/26 12:30:50;;;;;;;4.97;2.10;;;10.70;99.90;;;;;;4930497;29;20471;-65
2023/04/26 12:33:16;;;;;;;5.07;1.83;;;10.60;99.90;;;;;;4925910;29;20115;-67
2023/04/26 12:35:42;;;;;;;7.90;2.10;;;10.60;99.90;;;;;;4931113;29;20158;-66
2023/04/26 12:38:08;;;;;;;7.30;1.90;;;10.70;99.90;;;;;;4926425;29;20084;-66
2023/04/26 12:40:35;;;;;;;6.32;2.10;;;10.70;99.90;;;;;;4931873;29;20051;-66
2023/04/26 12:43:01;;;;;;;6.40;2.00;;;10.90;99.90;;;;;;4920663;29;20052;-66
2023/04/26 12:45:26;;;;;;;7.15;2.15;;;11.00;99.90;;;;;;4930019;29;20059;-66
2023/04/26 12:47:53;;;;;;;7.63;2.13;;;11.00;99.90;;;;;;4924730;29;20047;-66
2023/04/26 12:50:19;;;;;;;6.82;1.90;;;11.00;99.90;;;;;;4914074;29;20440;-65
2023/04/26 12:52:45;;;;;;;5.35;1.90;;;11.10;99.90;;;;;;4926972;29;20071;-67